createdAt,value
2023-03-10T20:04:02.200Z,38.07
2023-03-10T20:06:31.962Z,38.07
2023-03-10T20:09:01.841Z,38.31
2023-03-10T20:11:31.080Z,38.43
2023-03-10T20:13:59.790Z,38.22
2023-03-10T20:16:29.527Z,38.07
2023-03-10T20:18:59.044Z,37.96
2023-03-10T20:21:27.817Z,37.88
2023-03-10T20:23:56.499Z,37.77
2023-03-10T20:26:25.675Z,37.63
2023-03-10T20:28:54.375Z,37.58
2023-03-10T20:31:22.727Z,37.62
2023-03-10T20:33:51.432Z,37.53
2023-03-10T20:36:20.308Z,37.45
2023-03-10T20:38:49.214Z,37.36
2023-03-10T20:41:18.538Z,37.36
2023-03-10T20:43:48.751Z,37.24
2023-03-10T20:46:19.784Z,37.36
2023-03-10T20:48:49.995Z,37.26
2023-03-10T20:51:21.334Z,37.29
2023-03-10T20:53:49.950Z,37.21
2023-03-10T20:56:18.739Z,37.12
2023-03-10T20:58:47.383Z,37.14
2023-03-10T21:01:20.844Z,37.12
2023-03-10T21:03:48.708Z,37.11
2023-03-10T21:06:16.890Z,37.07
2023-03-10T21:08:44.429Z,37.07
2023-03-10T21:11:12.853Z,37.06
2023-03-10T21:13:44.191Z,37.05
2023-03-10T21:16:12.663Z,37.02
2023-03-10T21:18:40.567Z,36.99
2023-03-10T21:21:11.032Z,37.04
2023-03-10T21:23:41.702Z,37.04
2023-03-10T21:26:14.499Z,37.02
2023-03-10T21:28:42.537Z,36.97
2023-03-10T21:31:10.923Z,36.96
2023-03-10T21:33:42.043Z,36.97
2023-03-10T21:36:15.962Z,36.98
2023-03-10T21:38:44.261Z,36.81
2023-03-10T21:41:14.632Z,36.75
2023-03-10T21:43:42.521Z,36.91
2023-03-10T21:46:10.484Z,36.93
2023-03-10T21:48:38.775Z,36.85
2023-03-10T21:51:06.232Z,36.83
2023-03-10T21:53:34.076Z,36.84
2023-03-10T21:56:01.928Z,36.81
2023-03-10T21:58:29.645Z,36.86
2023-03-10T22:00:57.168Z,36.87
2023-03-10T22:03:24.879Z,36.86
2023-03-10T22:05:52.308Z,36.81
2023-03-10T22:08:21.066Z,36.76
2023-03-10T22:10:49.054Z,36.72
2023-03-10T22:13:16.478Z,36.70
2023-03-10T22:15:44.053Z,36.63
2023-03-10T22:18:11.817Z,36.55
2023-03-10T22:20:39.263Z,36.63
2023-03-10T22:23:07.861Z,36.58
2023-03-10T22:25:35.650Z,36.53
2023-03-10T22:28:03.293Z,36.51
2023-03-10T22:30:31.767Z,36.44
2023-03-10T22:32:59.479Z,36.37
2023-03-10T22:35:26.906Z,36.36
2023-03-10T22:37:54.826Z,36.31
2023-03-10T22:40:22.883Z,36.38
2023-03-10T22:42:50.320Z,36.48
2023-03-10T22:45:19.201Z,36.37
2023-03-10T22:47:47.019Z,36.36
2023-03-10T22:50:25.450Z,36.39
2023-03-10T22:52:53.231Z,36.45
2023-03-10T22:55:23.725Z,36.46
2023-03-10T22:57:51.945Z,36.41
2023-03-10T23:00:21.156Z,36.42
2023-03-10T23:02:49.209Z,36.50
2023-03-10T23:05:17.082Z,36.51
2023-03-10T23:07:44.869Z,36.58
2023-03-10T23:10:23.382Z,36.62
2023-03-10T23:12:51.668Z,36.60
2023-03-10T23:15:25.798Z,36.50
2023-03-10T23:17:54.282Z,36.58
2023-03-10T23:20:27.392Z,36.63
2023-03-10T23:22:56.448Z,36.70
2023-03-10T23:25:26.692Z,36.75
2023-03-10T23:27:54.123Z,36.72
2023-03-10T23:30:22.194Z,36.70
2023-03-10T23:32:50.102Z,36.69
2023-03-10T23:35:19.609Z,36.71
2023-03-10T23:37:47.312Z,36.77
2023-03-10T23:40:15.928Z,36.75
2023-03-10T23:42:43.367Z,36.72
2023-03-10T23:45:13.107Z,36.75
2023-03-10T23:47:40.541Z,36.78
2023-03-10T23:50:08.911Z,36.70
2023-03-10T23:52:36.714Z,36.72
2023-03-10T23:55:04.295Z,36.86
2023-03-10T23:57:31.718Z,36.91
2023-03-10T23:59:59.395Z,36.91
